Time;durP1;ratioP1;P1;durP2;ratioP2;P2;SDS_P1;SDS_P2;PMS_P1;PMS_P2;Temp;Humidity;BMP_temperature;BMP_pressure;BME280_temperature;BME280_humidity;BME280_pressure;Samples;Min_cycle;Max_cycle;Signal;HPM_P1;HPM_P2
2023/06/04 00:01:56;;;;;;;;;;;;;;;;;;4941150;28;19923;-80
2023/06/04 00:04:43;;;;;;;;;;;;;;;;;;4929130;28;20371;-81
2023/06/04 00:07:29;;;;;;;;;;;;;;;;;;4932867;28;19921;-81
2023/06/04 00:10:16;;;;;;;;;;;;;;;;;;4945810;28;19929;-80
2023/06/04 00:13:02;;;;;;;;;;;;;;;;;;4944457;28;19931;-80
2023/06/04 00:15:49;;;;;;;;;;;;;;;;;;4946448;28;19929;-81
2023/06/04 00:18:35;;;;;;;;;;;;;;;;;;4940653;28;19919;-82
2023/06/04 00:21:22;;;;;;;;;;;;;;;;;;4935579;28;19918;-82
2023/06/04 00:24:08;;;;;;;;;;;;;;;;;;4917371;29;20276;-80
2023/06/04 00:26:54;;;;;;;;;;;;;;;;;;4939864;28;19937;-78
2023/06/04 00:29:41;;;;;;;;;;;;;;;;;;4941957;29;20278;-78
2023/06/04 00:32:27;;;;;;;;;;;;;;;;;;4935364;28;20041;-79
2023/06/04 00:35:14;;;;;;;;;;;;;;;;;;4940336;28;19934;-79
2023/06/04 00:38:00;;;;;;;;;;;;;;;;;;4937581;28;19926;-79
2023/06/04 00:40:47;;;;;;;;;;;;;;;;;;4948595;28;19926;-79
2023/06/04 00:43:35;;;;;;;;;;;;;;;;;;4934503;29;19918;-80
2023/06/04 00:46:22;;;;;;;;;;;;;;;;;;4944503;28;20374;-80
2023/06/04 00:49:08;;;;;;;;;;;;;;;;;;4939378;28;19923;-78
2023/06/04 00:51:55;;;;;;;;;;;;;;;;;;4938818;28;19930;-78
2023/06/04 00:54:41;;;;;;;;;;;;;;;;;;4940328;28;20286;-79
2023/06/04 00:57:28;;;;;;;;;;;;;;;;;;4945092;28;20259;-80
2023/06/04 01:00:14;;;;;;;;;;;;;;;;;;4944888;28;19926;-81
2023/06/04 01:03:05;;;;;;;;;;;;;;;;;;4940902;29;19930;-79
2023/06/04 01:05:52;;;;;;;;;;;;;;;;;;4941769;28;19923;-80
2023/06/04 01:08:38;;;;;;;;;;;;;;;;;;4941269;28;19923;-80
2023/06/04 01:11:25;;;;;;;;;;;;;;;;;;4941989;28;19930;-79
2023/06/04 01:14:11;;;;;;;;;;;;;;;;;;4941034;28;19915;-79
2023/06/04 01:17:03;;;;;;;;;;;;;;;;;;4937825;28;19923;-78
2023/06/04 01:19:51;;;;;;;;;;;;;;;;;;4943714;28;19929;-78
2023/06/04 01:22:37;;;;;;;;;;;;;;;;;;4936688;28;20290;-79
2023/06/04 01:25:25;;;;;;;;;;;;;;;;;;4930800;28;19914;-80
2023/06/04 01:28:12;;;;;;;;;;;;;;;;;;4944393;28;19926;-80
2023/06/04 01:30:59;;;;;;;;;;;;;;;;;;4939549;28;19922;-80
2023/06/04 01:33:46;;;;;;;;;;;;;;;;;;4939879;29;19922;-79
2023/06/04 01:36:32;;;;;;;;;;;;;;;;;;4936631;29;19923;-80
2023/06/04 01:39:18;;;;;;;;;;;;;;;;;;4938705;29;20588;-80
2023/06/04 01:42:05;;;;;;;;;;;;;;;;;;4940434;29;19922;-80
2023/06/04 01:44:51;;;;;;;;;;;;;;;;;;4939072;28;19942;-80
2023/06/04 01:47:38;;;;;;;;;;;;;;;;;;4935755;29;20031;-79
2023/06/04 01:50:24;;;;;;;;;;;;;;;;;;4931402;29;19915;-79
2023/06/04 01:53:11;;;;;;;;;;;;;;;;;;4939925;28;19934;-79
2023/06/04 01:55:58;;;;;;;;;;;;;;;;;;4936508;28;19926;-79
2023/06/04 01:58:45;;;;;;;;;;;;;;;;;;4935336;28;19919;-80
2023/06/04 02:01:32;;;;;;;;;;;;;;;;;;4934048;28;20280;-80
2023/06/04 02:04:18;;;;;;;;;;;;;;;;;;4938615;28;19930;-78
2023/06/04 02:07:06;;;;;;;;;;;;;;;;;;4941888;28;19926;-79
2023/06/04 02:09:53;;;;;;;;;;;;;;;;;;4937022;29;19926;-80
2023/06/04 02:12:39;;;;;;;;;;;;;;;;;;4941729;28;19934;-80
2023/06/04 02:15:26;;;;;;;;;;;;;;;;;;4936692;28;20558;-80
2023/06/04 02:18:20;;;;;;;;;;;;;;;;;;4934663;29;19923;-79
2023/06/04 02:21:07;;;;;;;;;;;;;;;;;;4930157;28;19925;-80
2023/06/04 02:23:53;;;;;;;;;;;;;;;;;;4939610;28;20303;-79
2023/06/04 02:26:40;;;;;;;;;;;;;;;;;;4942666;28;19937;-79
2023/06/04 02:29:26;;;;;;;;;;;;;;;;;;4934968;28;19925;-79
2023/06/04 02:32:13;;;;;;;;;;;;;;;;;;4933944;28;19949;-79
2023/06/04 02:34:59;;;;;;;;;;;;;;;;;;4920262;28;20407;-79
2023/06/04 02:37:46;;;;;;;;;;;;;;;;;;4946117;28;19930;-81
2023/06/04 02:40:32;;;;;;;;;;;;;;;;;;4946786;28;20021;-81
2023/06/04 02:43:19;;;;;;;;;;;;;;;;;;4938575;28;19927;-81
2023/06/04 02:46:06;;;;;;;;;;;;;;;;;;4940438;29;19921;-81
2023/06/04 02:48:52;;;;;;;;;;;;;;;;;;4938134;28;19923;-81
2023/06/04 02:51:39;;;;;;;;;;;;;;;;;;4943463;29;19931;-81
2023/06/04 02:54:25;;;;;;;;;;;;;;;;;;4936245;28;19934;-81
2023/06/04 02:57:12;;;;;;;;;;;;;;;;;;4944219;28;19919;-81
2023/06/04 02:59:58;;;;;;;;;;;;;;;;;;4936080;29;20260;-81
2023/06/04 03:02:45;;;;;;;;;;;;;;;;;;4943378;28;19922;-80
2023/06/04 03:05:32;;;;;;;;;;;;;;;;;;4943657;28;19945;-79
2023/06/04 03:08:19;;;;;;;;;;;;;;;;;;4940086;28;20276;-80
2023/06/04 03:11:06;;;;;;;;;;;;;;;;;;4934868;29;19922;-79
2023/06/04 03:13:53;;;;;;;;;;;;;;;;;;4940148;29;20119;-79
2023/06/04 03:16:39;;;;;;;;;;;;;;;;;;4945227;28;19934;-78
2023/06/04 03:19:26;;;;;;;;;;;;;;;;;;4947634;28;19946;-79
2023/06/04 03:22:12;;;;;;;;;;;;;;;;;;4944789;29;19929;-79
2023/06/04 03:24:59;;;;;;;;;;;;;;;;;;4938716;29;19927;-79
2023/06/04 03:27:45;;;;;;;;;;;;;;;;;;4939246;29;19953;-81
2023/06/04 03:30:32;;;;;;;;;;;;;;;;;;4943059;29;20401;-81
2023/06/04 03:33:18;;;;;;;;;;;;;;;;;;4941761;29;19935;-79
2023/06/04 03:36:05;;;;;;;;;;;;;;;;;;4943749;29;19926;-78
2023/06/04 03:38:51;;;;;;;;;;;;;;;;;;4941245;28;19929;-78
2023/06/04 03:41:38;;;;;;;;;;;;;;;;;;4945110;28;19923;-78
2023/06/04 03:44:24;;;;;;;;;;;;;;;;;;4941846;29;19929;-79
2023/06/04 03:47:11;;;;;;;;;;;;;;;;;;4945692;28;20297;-79
2023/06/04 03:49:57;;;;;;;;;;;;;;;;;;4941760;28;19922;-79
2023/06/04 03:52:44;;;;;;;;;;;;;;;;;;4936928;28;20538;-80
2023/06/04 03:55:31;;;;;;;;;;;;;;;;;;4924487;29;19929;-79
2023/06/04 03:58:18;;;;;;;;;;;;;;;;;;4934517;28;19921;-79
2023/06/04 04:01:05;;;;;;;;;;;;;;;;;;4939351;28;19927;-79
2023/06/04 04:03:52;;;;;;;;;;;;;;;;;;4924181;29;19926;-79
2023/06/04 04:06:38;;;;;;;;;;;;;;;;;;4933137;29;19923;-79
2023/06/04 04:09:24;;;;;;;;;;;;;;;;;;4942820;29;20369;-79
2023/06/04 04:12:11;;;;;;;;;;;;;;;;;;4942331;28;19932;-78
2023/06/04 04:14:58;;;;;;;;;;;;;;;;;;4937248;29;19924;-80
2023/06/04 04:17:44;;;;;;;;;;;;;;;;;;4936992;28;19919;-79
2023/06/04 04:20:31;;;;;;;;;;;;;;;;;;4935014;29;19925;-78
2023/06/04 04:23:17;;;;;;;;;;;;;;;;;;4947514;29;19942;-79
2023/06/04 04:26:04;;;;;;;;;;;;;;;;;;4938309;29;19930;-79
2023/06/04 04:28:52;;;;;;;;;;;;;;;;;;4937065;29;20285;-78
2023/06/04 04:31:39;;;;;;;;;;;;;;;;;;4926780;29;19922;-78
2023/06/04 04:34:25;;;;;;;;;;;;;;;;;;4941270;29;19919;-79
2023/06/04 04:37:12;;;;;;;;;;;;;;;;;;4948023;28;19914;-79
2023/06/04 04:39:58;;;;;;;;;;;;;;;;;;4945062;28;19918;-78
2023/06/04 04:42:45;;;;;;;;;;;;;;;;;;4946131;29;19918;-78
2023/06/04 04:45:31;;;;;;;;;;;;;;;;;;4945364;28;19919;-79
2023/06/04 04:48:18;;;;;;;;;;;;;;;;;;4947972;28;19922;-78
2023/06/04 04:51:04;;;;;;;;;;;;;;;;;;4948520;28;19922;-79
2023/06/04 04:53:50;;;;;;;;;;;;;;;;;;4949599;28;19977;-79
2023/06/04 04:56:37;;;;;;;;;;;;;;;;;;4950971;28;19947;-78
2023/06/04 04:59:23;;;;;;;;;;;;;;;;;;4947746;28;19921;-79
2023/06/04 05:02:10;;;;;;;;;;;;;;;;;;4942544;28;19930;-79
2023/06/04 05:04:56;;;;;;;;;;;;;;;;;;4938618;29;19919;-80
2023/06/04 05:07:43;;;;;;;;;;;;;;;;;;4942304;29;19938;-81
2023/06/04 05:10:29;;;;;;;;;;;;;;;;;;4939491;28;19933;-81
2023/06/04 05:13:17;;;;;;;;;;;;;;;;;;4936433;28;20406;-80
2023/06/04 05:16:06;;;;;;;;;;;;;;;;;;4943096;29;19918;-82
2023/06/04 05:18:53;;;;;;;;;;;;;;;;;;4946648;28;20021;-81
2023/06/04 05:21:39;;;;;;;;;;;;;;;;;;4948690;28;20386;-83
2023/06/04 05:24:26;;;;;;;;;;;;;;;;;;4945969;28;19925;-81
2023/06/04 05:27:12;;;;;;;;;;;;;;;;;;4950041;28;20310;-81
2023/06/04 05:30:00;;;;;;;;;;;;;;;;;;4941420;29;19923;-81
2023/06/04 05:32:47;;;;;;;;;;;;;;;;;;4943043;28;20480;-82
2023/06/04 05:35:33;;;;;;;;;;;;;;;;;;4947435;29;19923;-83
2023/06/04 05:38:20;;;;;;;;;;;;;;;;;;4935689;29;19922;-83
2023/06/04 05:41:07;;;;;;;;;;;;;;;;;;4943092;28;19918;-85
2023/06/04 05:43:53;;;;;;;;;;;;;;;;;;4939564;29;19929;-82
2023/06/04 05:46:40;;;;;;;;;;;;;;;;;;4941652;28;19915;-82
2023/06/04 05:49:26;;;;;;;;;;;;;;;;;;4937615;29;19919;-81
2023/06/04 05:52:13;;;;;;;;;;;;;;;;;;4935045;29;19942;-82
2023/06/04 05:54:59;;;;;;;;;;;;;;;;;;4932467;29;20294;-82
2023/06/04 05:57:46;;;;;;;;;;;;;;;;;;4936630;29;19926;-83
2023/06/04 06:00:32;;;;;;;;;;;;;;;;;;4943402;29;19938;-84
2023/06/04 06:03:19;;;;;;;;;;;;;;;;;;4947759;28;20317;-83
2023/06/04 06:06:06;;;;;;;;;;;;;;;;;;4945013;28;19926;-83
2023/06/04 06:08:52;;;;;;;;;;;;;;;;;;4942743;28;20286;-83
2023/06/04 06:11:39;;;;;;;;;;;;;;;;;;4937832;29;19927;-81
2023/06/04 06:14:25;;;;;;;;;;;;;;;;;;4944136;28;20306;-81
2023/06/04 06:17:12;;;;;;;;;;;;;;;;;;4938201;28;19930;-80
2023/06/04 06:19:58;;;;;;;;;;;;;;;;;;4942705;29;19934;-81
2023/06/04 06:22:45;;;;;;;;;;;;;;;;;;4944285;28;20267;-79
2023/06/04 06:25:31;;;;;;;;;;;;;;;;;;4940008;28;19926;-81
2023/06/04 06:28:18;;;;;;;;;;;;;;;;;;4943270;29;19945;-81
2023/06/04 06:31:05;;;;;;;;;;;;;;;;;;4943687;29;20268;-81
2023/06/04 06:33:52;;;;;;;;;;;;;;;;;;4942077;28;19953;-80
2023/06/04 06:36:38;;;;;;;;;;;;;;;;;;4939787;28;19922;-81
2023/06/04 06:39:25;;;;;;;;;;;;;;;;;;4939118;28;20302;-80
2023/06/04 06:42:12;;;;;;;;;;;;;;;;;;4933103;28;19926;-78
2023/06/04 06:44:59;;;;;;;;;;;;;;;;;;4940366;28;19919;-78
2023/06/04 06:47:45;;;;;;;;;;;;;;;;;;4946810;28;19929;-78
2023/06/04 06:50:33;;;;;;;;;;;;;;;;;;4938661;28;19914;-78
2023/06/04 06:53:22;;;;;;;;;;;;;;;;;;4938605;29;19941;-79
2023/06/04 06:56:09;;;;;;;;;;;;;;;;;;4937629;28;19949;-78
2023/06/04 06:58:56;;;;;;;;;;;;;;;;;;4912872;29;19930;-78
2023/06/04 07:01:42;;;;;;;;;;;;;;;;;;4940473;28;20764;-82
2023/06/04 07:04:28;;;;;;;;;;;;;;;;;;4936542;29;19929;-77
2023/06/04 07:07:15;;;;;;;;;;;;;;;;;;4942374;28;19942;-81
2023/06/04 07:10:03;;;;;;;;;;;;;;;;;;4930512;28;19935;-77
2023/06/04 07:12:50;;;;;;;;;;;;;;;;;;4941617;29;19934;-77
2023/06/04 07:15:36;;;;;;;;;;;;;;;;;;4933721;29;19929;-77
2023/06/04 07:18:23;;;;;;;;;;;;;;;;;;4935150;29;19985;-77
2023/06/04 07:21:09;;;;;;;;;;;;;;;;;;4936754;29;19919;-77
2023/06/04 07:23:56;;;;;;;;;;;;;;;;;;4934292;28;19918;-77
2023/06/04 07:26:42;;;;;;;;;;;;;;;;;;4935341;29;19937;-77
2023/06/04 07:29:29;;;;;;;;;;;;;;;;;;4940715;28;20312;-77
2023/06/04 07:32:15;;;;;;;;;;;;;;;;;;4927927;29;19923;-78
2023/06/04 07:35:02;;;;;;;;;;;;;;;;;;4940819;28;20491;-79
2023/06/04 07:37:48;;;;;;;;;;;;;;;;;;4936864;28;20595;-79
2023/06/04 07:40:35;;;;;;;;;;;;;;;;;;4941101;28;19923;-79
2023/06/04 07:43:21;;;;;;;;;;;;;;;;;;4947387;28;19922;-82
2023/06/04 07:46:09;;;;;;;;;;;;;;;;;;4940969;29;19922;-80
2023/06/04 07:48:55;;;;;;;;;;;;;;;;;;4938626;28;20302;-80
2023/06/04 07:51:42;;;;;;;;;;;;;;;;;;4940588;28;19930;-80
2023/06/04 07:54:28;;;;;;;;;;;;;;;;;;4936083;28;19925;-81
2023/06/04 07:57:15;;;;;;;;;;;;;;;;;;4933878;29;20355;-80
2023/06/04 08:00:04;;;;;;;;;;;;;;;;;;4938581;28;19922;-79
2023/06/04 08:02:52;;;;;;;;;;;;;;;;;;4939714;28;19919;-79
2023/06/04 08:05:38;;;;;;;;;;;;;;;;;;4941483;29;19930;-80
2023/06/04 08:08:25;;;;;;;;;;;;;;;;;;4941726;29;19938;-79
2023/06/04 08:11:11;;;;;;;;;;;;;;;;;;4938223;28;19922;-77
2023/06/04 08:13:58;;;;;;;;;;;;;;;;;;4941535;28;19930;-79
2023/06/04 08:16:44;;;;;;;;;;;;;;;;;;4931113;28;20259;-77
2023/06/04 08:19:31;;;;;;;;;;;;;;;;;;4930224;28;19919;-77
2023/06/04 08:22:17;;;;;;;;;;;;;;;;;;4944698;29;19929;-77
2023/06/04 08:25:04;;;;;;;;;;;;;;;;;;4936808;29;20298;-77
2023/06/04 08:27:51;;;;;;;;;;;;;;;;;;4940379;28;20397;-77
2023/06/04 08:30:37;;;;;;;;;;;;;;;;;;4940020;28;19918;-77
2023/06/04 08:33:24;;;;;;;;;;;;;;;;;;4934180;29;20472;-78
2023/06/04 08:36:10;;;;;;;;;;;;;;;;;;4936053;28;19926;-77
2023/06/04 08:38:57;;;;;;;;;;;;;;;;;;4928560;28;19921;-77
2023/06/04 08:41:44;;;;;;;;;;;;;;;;;;4947086;28;19949;-77
2023/06/04 08:44:30;;;;;;;;;;;;;;;;;;4941571;28;19934;-77
2023/06/04 08:47:17;;;;;;;;;;;;;;;;;;4929872;28;19922;-77
2023/06/04 08:50:03;;;;;;;;;;;;;;;;;;4941436;28;20364;-77
2023/06/04 08:52:50;;;;;;;;;;;;;;;;;;4943734;28;19933;-77
2023/06/04 08:55:36;;;;;;;;;;;;;;;;;;4947244;28;19929;-77
2023/06/04 08:58:23;;;;;;;;;;;;;;;;;;4937739;28;19927;-78
2023/06/04 09:01:09;;;;;;;;;;;;;;;;;;4930927;29;20448;-78
2023/06/04 09:03:56;;;;;;;;;;;;;;;;;;4933140;28;19918;-78
2023/06/04 09:06:43;;;;;;;;;;;;;;;;;;4944460;28;19922;-77
2023/06/04 09:09:30;;;;;;;;;;;;;;;;;;4939575;28;20370;-76
2023/06/04 09:12:16;;;;;;;;;;;;;;;;;;4945485;28;19941;-81
2023/06/04 09:15:03;;;;;;;;;;;;;;;;;;4947555;29;19962;-83
2023/06/04 09:17:49;;;;;;;;;;;;;;;;;;4941236;28;19954;-84
2023/06/04 09:20:36;;;;;;;;;;;;;;;;;;4936360;29;19923;-79
2023/06/04 09:23:23;;;;;;;;;;;;;;;;;;4942479;29;19930;-80
2023/06/04 09:26:09;;;;;;;;;;;;;;;;;;4941371;29;19938;-79
2023/06/04 09:28:57;;;;;;;;;;;;;;;;;;4931748;29;19926;-81
2023/06/04 09:31:44;;;;;;;;;;;;;;;;;;4942275;29;19929;-79
2023/06/04 09:34:31;;;;;;;;;;;;;;;;;;4934097;28;19933;-85
2023/06/04 09:37:17;;;;;;;;;;;;;;;;;;4941718;28;19929;-84
2023/06/04 09:40:05;;;;;;;;;;;;;;;;;;4940555;28;19925;-82
2023/06/04 09:42:55;;;;;;;;;;;;;;;;;;4948217;29;19922;-84
2023/06/04 09:45:41;;;;;;;;;;;;;;;;;;4951427;28;19929;-82
2023/06/04 09:48:28;;;;;;;;;;;;;;;;;;4941169;28;19933;-83
2023/06/04 09:51:21;;;;;;;;;;;;;;;;;;4935869;28;19922;-84
2023/06/04 09:54:07;;;;;;;;;;;;;;;;;;4941687;29;19937;-86
2023/06/04 09:56:54;;;;;;;;;;;;;;;;;;4938981;28;19941;-85
2023/06/04 09:59:40;;;;;;;;;;;;;;;;;;4929476;29;20398;-84
2023/06/04 10:02:27;;;;;;;;;;;;;;;;;;4935460;28;19933;-83
2023/06/04 10:05:14;;;;;;;;;;;;;;;;;;4940570;29;19999;-83
2023/06/04 10:08:00;;;;;;;;;;;;;;;;;;4944427;28;19934;-84
2023/06/04 10:10:47;;;;;;;;;;;;;;;;;;4937881;28;19930;-79
2023/06/04 10:13:33;;;;;;;;;;;;;;;;;;4938166;28;19926;-81
2023/06/04 10:16:20;;;;;;;;;;;;;;;;;;4924370;28;19926;-80
2023/06/04 10:19:06;;;;;;;;;;;;;;;;;;4943409;28;20286;-80
2023/06/04 10:21:53;;;;;;;;;;;;;;;;;;4932800;28;19921;-79
2023/06/04 10:24:39;;;;;;;;;;;;;;;;;;4934703;28;19945;-80
2023/06/04 10:27:26;;;;;;;;;;;;;;;;;;4934668;29;20408;-79
2023/06/04 10:30:13;;;;;;;;;;;;;;;;;;4939548;28;19922;-81
2023/06/04 10:32:59;;;;;;;;;;;;;;;;;;4935192;29;20655;-78
2023/06/04 10:35:46;;;;;;;;;;;;;;;;;;4941402;28;19921;-80
2023/06/04 10:38:32;;;;;;;;;;;;;;;;;;4929855;28;20285;-79
2023/06/04 10:41:19;;;;;;;;;;;;;;;;;;4943548;29;19926;-80
2023/06/04 10:44:05;;;;;;;;;;;;;;;;;;4942955;28;19918;-80
2023/06/04 10:46:51;;;;;;;;;;;;;;;;;;4941902;29;19937;-80
2023/06/04 10:49:38;;;;;;;;;;;;;;;;;;4933620;28;19926;-80
2023/06/04 10:52:24;;;;;;;;;;;;;;;;;;4933453;29;19926;-78
2023/06/04 10:55:11;;;;;;;;;;;;;;;;;;4941577;29;19948;-77
2023/06/04 10:57:57;;;;;;;;;;;;;;;;;;4940162;29;20477;-81
2023/06/04 11:00:46;;;;;;;;;;;;;;;;;;4936389;28;19933;-77
2023/06/04 11:03:32;;;;;;;;;;;;;;;;;;4942082;28;20570;-77
2023/06/04 11:06:19;;;;;;;;;;;;;;;;;;4944991;29;19926;-77
2023/06/04 11:09:06;;;;;;;;;;;;;;;;;;4940799;29;19929;-78
2023/06/04 11:11:52;;;;;;;;;;;;;;;;;;4939080;28;19922;-78
2023/06/04 11:14:39;;;;;;;;;;;;;;;;;;4934921;28;19929;-78
2023/06/04 11:17:26;;;;;;;;;;;;;;;;;;4944406;28;19914;-78
2023/06/04 11:20:12;;;;;;;;;;;;;;;;;;4940045;28;20663;-79
2023/06/04 11:23:03;;;;;;;;;;;;;;;;;;4945405;28;20585;-78
2023/06/04 11:25:49;;;;;;;;;;;;;;;;;;4926078;29;19927;-77
2023/06/04 11:28:36;;;;;;;;;;;;;;;;;;4935871;28;20454;-76
2023/06/04 11:31:22;;;;;;;;;;;;;;;;;;4955938;28;19922;-78
2023/06/04 11:34:09;;;;;;;;;;;;;;;;;;4936397;29;19927;-77
2023/06/04 11:36:55;;;;;;;;;;;;;;;;;;4943526;28;19923;-77
2023/06/04 11:39:44;;;;;;;;;;;;;;;;;;4946117;28;19923;-77
2023/06/04 11:42:30;;;;;;;;;;;;;;;;;;4939904;28;19929;-77
2023/06/04 11:45:17;;;;;;;;;;;;;;;;;;4946406;28;19921;-78
2023/06/04 11:48:03;;;;;;;;;;;;;;;;;;4944086;28;20476;-77
2023/06/04 11:50:50;;;;;;;;;;;;;;;;;;4939554;29;19914;-77
2023/06/04 11:53:36;;;;;;;;;;;;;;;;;;4933785;29;20310;-77
2023/06/04 11:56:23;;;;;;;;;;;;;;;;;;4938804;29;19918;-77
2023/06/04 11:59:13;;;;;;;;;;;;;;;;;;4932376;29;20313;-77
2023/06/04 12:02:00;;;;;;;;;;;;;;;;;;4944289;28;20370;-76
2023/06/04 12:04:47;;;;;;;;;;;;;;;;;;4928321;28;19923;-76
2023/06/04 12:07:33;;;;;;;;;;;;;;;;;;4934311;29;20271;-76
2023/06/04 12:10:20;;;;;;;;;;;;;;;;;;4933023;28;19925;-78
2023/06/04 12:13:06;;;;;;;;;;;;;;;;;;4928595;29;20358;-79
2023/06/04 12:15:53;;;;;;;;;;;;;;;;;;4940986;29;19919;-79
2023/06/04 12:18:40;;;;;;;;;;;;;;;;;;4937295;28;19923;-79
2023/06/04 12:21:26;;;;;;;;;;;;;;;;;;4952998;28;19918;-78
2023/06/04 12:24:13;;;;;;;;;;;;;;;;;;4931557;29;20382;-79
2023/06/04 12:26:59;;;;;;;;;;;;;;;;;;4943773;28;19930;-78
2023/06/04 12:29:46;;;;;;;;;;;;;;;;;;4931911;28;19914;-78
2023/06/04 12:32:32;;;;;;;;;;;;;;;;;;4934939;28;20610;-78
2023/06/04 12:35:21;;;;;;;;;;;;;;;;;;4940988;28;21866;-78
2023/06/04 12:38:09;;;;;;;;;;;;;;;;;;4920520;29;19923;-78
2023/06/04 12:40:55;;;;;;;;;;;;;;;;;;4926811;29;19914;-78
2023/06/04 12:43:42;;;;;;;;;;;;;;;;;;4928233;29;19927;-78
2023/06/04 12:46:28;;;;;;;;;;;;;;;;;;4931778;28;19925;-78
2023/06/04 12:49:15;;;;;;;;;;;;;;;;;;4935499;28;19923;-78
2023/06/04 12:52:01;;;;;;;;;;;;;;;;;;4930656;28;20359;-78
2023/06/04 12:54:48;;;;;;;;;;;;;;;;;;4919002;28;19930;-77
2023/06/04 12:57:34;;;;;;;;;;;;;;;;;;4928460;28;19918;-78
2023/06/04 13:00:21;;;;;;;;;;;;;;;;;;4928099;29;19926;-79
2023/06/04 13:03:08;;;;;;;;;;;;;;;;;;4918853;29;20395;-78
2023/06/04 13:05:54;;;;;;;;;;;;;;;;;;4927611;29;19923;-79
2023/06/04 13:08:41;;;;;;;;;;;;;;;;;;4922979;29;19935;-78
2023/06/04 13:11:27;;;;;;;;;;;;;;;;;;4930119;28;19919;-78
2023/06/04 13:14:14;;;;;;;;;;;;;;;;;;4938760;28;19953;-78
2023/06/04 13:17:00;;;;;;;;;;;;;;;;;;4935139;29;19914;-78
2023/06/04 13:19:47;;;;;;;;;;;;;;;;;;4933257;28;19927;-78
2023/06/04 13:22:33;;;;;;;;;;;;;;;;;;4918412;29;19918;-78
2023/06/04 13:25:20;;;;;;;;;;;;;;;;;;4932480;29;19941;-77
2023/06/04 13:28:07;;;;;;;;;;;;;;;;;;4940265;28;19942;-77
2023/06/04 13:30:54;;;;;;;;;;;;;;;;;;4942745;28;19918;-77
2023/06/04 13:33:41;;;;;;;;;;;;;;;;;;4946506;29;19945;-77
2023/06/04 13:36:28;;;;;;;;;;;;;;;;;;4940963;28;19933;-78
2023/06/04 13:39:14;;;;;;;;;;;;;;;;;;4945233;28;19925;-77
2023/06/04 13:42:00;;;;;;;;;;;;;;;;;;4938678;29;20400;-78
2023/06/04 13:44:47;;;;;;;;;;;;;;;;;;4942355;28;19934;-78
2023/06/04 13:47:33;;;;;;;;;;;;;;;;;;4944793;28;19934;-78
2023/06/04 13:50:20;;;;;;;;;;;;;;;;;;4937363;29;19929;-78
2023/06/04 13:53:07;;;;;;;;;;;;;;;;;;4932233;29;19935;-78
2023/06/04 13:55:57;;;;;;;;;;;;;;;;;;4940790;29;19926;-77
2023/06/04 13:58:44;;;;;;;;;;;;;;;;;;4930283;29;19926;-79
2023/06/04 14:01:30;;;;;;;;;;;;;;;;;;4931890;29;19915;-78
2023/06/04 14:04:17;;;;;;;;;;;;;;;;;;4943458;29;20528;-78
2023/06/04 14:07:05;;;;;;;;;;;;;;;;;;4946669;28;19922;-78
2023/06/04 14:09:54;;;;;;;;;;;;;;;;;;4931337;29;20378;-79
2023/06/04 14:12:40;;;;;;;;;;;;;;;;;;4948690;28;20562;-78
2023/06/04 14:15:27;;;;;;;;;;;;;;;;;;4945492;29;20306;-78
2023/06/04 14:18:13;;;;;;;;;;;;;;;;;;4947671;29;19929;-79
2023/06/04 14:21:00;;;;;;;;;;;;;;;;;;4942310;29;19923;-78
2023/06/04 14:23:46;;;;;;;;;;;;;;;;;;4940337;29;19919;-78
2023/06/04 14:26:33;;;;;;;;;;;;;;;;;;4939645;28;19930;-78
2023/06/04 14:29:20;;;;;;;;;;;;;;;;;;4918651;29;19919;-78
2023/06/04 14:32:06;;;;;;;;;;;;;;;;;;4894633;28;19930;-78
2023/06/04 14:34:53;;;;;;;;;;;;;;;;;;4944515;28;19926;-78
2023/06/04 14:37:39;;;;;;;;;;;;;;;;;;4927269;29;19919;-78
2023/06/04 14:40:26;;;;;;;;;;;;;;;;;;4945779;28;19922;-78
2023/06/04 14:43:12;;;;;;;;;;;;;;;;;;4943347;29;19921;-78
2023/06/04 14:45:59;;;;;;;;;;;;;;;;;;4930560;29;20290;-78
2023/06/04 14:48:45;;;;;;;;;;;;;;;;;;4939373;29;19933;-78
2023/06/04 14:51:32;;;;;;;;;;;;;;;;;;4943736;29;19925;-79
2023/06/04 14:54:18;;;;;;;;;;;;;;;;;;4946112;28;19926;-78
2023/06/04 14:57:05;;;;;;;;;;;;;;;;;;4939246;29;19925;-79
2023/06/04 14:59:52;;;;;;;;;;;;;;;;;;4935319;28;19922;-78
2023/06/04 15:02:38;;;;;;;;;;;;;;;;;;4945620;28;20345;-78
2023/06/04 15:05:25;;;;;;;;;;;;;;;;;;4934082;29;20271;-77
2023/06/04 15:08:11;;;;;;;;;;;;;;;;;;4937238;29;19938;-77
2023/06/04 15:10:58;;;;;;;;;;;;;;;;;;4933877;29;19941;-78
2023/06/04 15:13:44;;;;;;;;;;;;;;;;;;4946189;28;19930;-77
2023/06/04 15:16:31;;;;;;;;;;;;;;;;;;4952007;28;19929;-77
2023/06/04 15:19:17;;;;;;;;;;;;;;;;;;4941990;28;20373;-77
2023/06/04 15:22:04;;;;;;;;;;;;;;;;;;4943415;29;19919;-77
2023/06/04 15:24:50;;;;;;;;;;;;;;;;;;4939768;28;20389;-78
2023/06/04 15:27:38;;;;;;;;;;;;;;;;;;4942050;28;19927;-77
2023/06/04 15:30:24;;;;;;;;;;;;;;;;;;4941674;29;19929;-77
2023/06/04 15:33:11;;;;;;;;;;;;;;;;;;4952093;28;19918;-77
2023/06/04 15:35:57;;;;;;;;;;;;;;;;;;4941292;28;19926;-77
2023/06/04 15:38:44;;;;;;;;;;;;;;;;;;4932576;29;19918;-77
2023/06/04 15:41:30;;;;;;;;;;;;;;;;;;4943919;29;19926;-78
2023/06/04 15:44:17;;;;;;;;;;;;;;;;;;4944575;29;19918;-77
2023/06/04 15:47:04;;;;;;;;;;;;;;;;;;4942272;29;19918;-78
2023/06/04 15:49:50;;;;;;;;;;;;;;;;;;4946121;28;19925;-77
2023/06/04 15:52:37;;;;;;;;;;;;;;;;;;4941237;29;19945;-77
2023/06/04 15:55:23;;;;;;;;;;;;;;;;;;4944201;28;19933;-78
2023/06/04 15:58:10;;;;;;;;;;;;;;;;;;4946169;28;19926;-78
2023/06/04 16:00:56;;;;;;;;;;;;;;;;;;4938124;28;20326;-78
2023/06/04 16:03:43;;;;;;;;;;;;;;;;;;4945048;28;20402;-78
2023/06/04 16:06:29;;;;;;;;;;;;;;;;;;4940683;28;19915;-78
2023/06/04 16:09:16;;;;;;;;;;;;;;;;;;4941533;28;19919;-78
2023/06/04 16:12:04;;;;;;;;;;;;;;;;;;4936667;29;20357;-77
2023/06/04 16:14:50;;;;;;;;;;;;;;;;;;4943231;29;19933;-78
2023/06/04 16:17:38;;;;;;;;;;;;;;;;;;4946345;29;19930;-77
2023/06/04 16:20:24;;;;;;;;;;;;;;;;;;4941524;29;20350;-78
2023/06/04 16:23:11;;;;;;;;;;;;;;;;;;4945280;29;20366;-79
2023/06/04 16:25:57;;;;;;;;;;;;;;;;;;4942983;29;19922;-78
2023/06/04 16:28:44;;;;;;;;;;;;;;;;;;4944810;29;19929;-78
2023/06/04 16:31:31;;;;;;;;;;;;;;;;;;4938454;29;19921;-78
2023/06/04 16:34:17;;;;;;;;;;;;;;;;;;4941035;29;19965;-78
2023/06/04 16:37:04;;;;;;;;;;;;;;;;;;4942154;29;19923;-78
2023/06/04 16:39:50;;;;;;;;;;;;;;;;;;4942664;29;19920;-77
2023/06/04 16:42:37;;;;;;;;;;;;;;;;;;4944693;28;19919;-76
2023/06/04 16:45:24;;;;;;;;;;;;;;;;;;4940928;28;19915;-77
2023/06/04 16:48:10;;;;;;;;;;;;;;;;;;4943697;28;19918;-78
2023/06/04 16:50:57;;;;;;;;;;;;;;;;;;4947826;28;19914;-79
2023/06/04 16:53:43;;;;;;;;;;;;;;;;;;4944328;29;19948;-78
2023/06/04 16:56:30;;;;;;;;;;;;;;;;;;4939583;29;19924;-78
2023/06/04 16:59:16;;;;;;;;;;;;;;;;;;4932917;29;19921;-78
2023/06/04 17:02:03;;;;;;;;;;;;;;;;;;4941362;29;19928;-79
2023/06/04 17:04:49;;;;;;;;;;;;;;;;;;4945750;29;19945;-78
2023/06/04 17:07:36;;;;;;;;;;;;;;;;;;4947608;28;19929;-79
2023/06/04 17:10:22;;;;;;;;;;;;;;;;;;4946763;29;19918;-79
2023/06/04 17:13:09;;;;;;;;;;;;;;;;;;4929963;29;19934;-78
2023/06/04 17:15:55;;;;;;;;;;;;;;;;;;4945473;29;19922;-79
2023/06/04 17:18:42;;;;;;;;;;;;;;;;;;4947326;28;21362;-79
2023/06/04 17:21:29;;;;;;;;;;;;;;;;;;4946088;28;19923;-78
2023/06/04 17:24:15;;;;;;;;;;;;;;;;;;4932124;29;19919;-78
2023/06/04 17:27:02;;;;;;;;;;;;;;;;;;4935228;29;19938;-79
2023/06/04 17:29:48;;;;;;;;;;;;;;;;;;4932564;29;19918;-78
2023/06/04 17:32:35;;;;;;;;;;;;;;;;;;4943260;29;19945;-78
2023/06/04 17:35:21;;;;;;;;;;;;;;;;;;4938304;29;20609;-78
2023/06/04 17:38:08;;;;;;;;;;;;;;;;;;4935787;29;19923;-78
2023/06/04 17:40:54;;;;;;;;;;;;;;;;;;4934577;28;19919;-78
2023/06/04 17:43:41;;;;;;;;;;;;;;;;;;4936951;29;19922;-78
2023/06/04 17:46:27;;;;;;;;;;;;;;;;;;4942989;29;20617;-78
2023/06/04 17:49:15;;;;;;;;;;;;;;;;;;4933767;28;19929;-78
2023/06/04 17:52:01;;;;;;;;;;;;;;;;;;4936476;29;20387;-78
2023/06/04 17:54:49;;;;;;;;;;;;;;;;;;4934322;29;19926;-78
2023/06/04 17:57:35;;;;;;;;;;;;;;;;;;4937893;29;20282;-79
2023/06/04 18:00:22;;;;;;;;;;;;;;;;;;4950802;28;19922;-79
2023/06/04 18:03:11;;;;;;;;;;;;;;;;;;4943367;28;19918;-78
2023/06/04 18:05:57;;;;;;;;;;;;;;;;;;4945628;29;19930;-79
2023/06/04 18:08:44;;;;;;;;;;;;;;;;;;4939817;29;19918;-79
2023/06/04 18:11:30;;;;;;;;;;;;;;;;;;4935443;29;19918;-79
2023/06/04 18:14:17;;;;;;;;;;;;;;;;;;4934919;28;19937;-77
2023/06/04 18:17:03;;;;;;;;;;;;;;;;;;4942395;29;20354;-79
2023/06/04 18:19:51;;;;;;;;;;;;;;;;;;4942171;29;19929;-78
2023/06/04 18:22:37;;;;;;;;;;;;;;;;;;4943370;29;19922;-83
2023/06/04 18:25:24;;;;;;;;;;;;;;;;;;4938328;28;19922;-83
2023/06/04 18:28:10;;;;;;;;;;;;;;;;;;4937133;29;19935;-82
2023/06/04 18:30:57;;;;;;;;;;;;;;;;;;4935581;29;20401;-84
2023/06/04 18:33:43;;;;;;;;;;;;;;;;;;4940619;28;19935;-83
2023/06/04 18:36:31;;;;;;;;;;;;;;;;;;4936177;29;20386;-80
2023/06/04 18:39:17;;;;;;;;;;;;;;;;;;4947594;28;20681;-79
2023/06/04 18:42:04;;;;;;;;;;;;;;;;;;4945974;28;19923;-80
2023/06/04 18:44:50;;;;;;;;;;;;;;;;;;4943457;29;19918;-79
2023/06/04 18:47:37;;;;;;;;;;;;;;;;;;4941501;29;19945;-81
2023/06/04 18:50:23;;;;;;;;;;;;;;;;;;4939079;29;19927;-82
2023/06/04 18:53:10;;;;;;;;;;;;;;;;;;4939136;29;19957;-81
2023/06/04 18:55:57;;;;;;;;;;;;;;;;;;4939253;28;19922;-83
2023/06/04 18:58:47;;;;;;;;;;;;;;;;;;4942317;28;19922;-82